Clinton, IA

5:58 PM CDT on July 27, 2017 (GMT -0500)
Mayer Farm @ Eagle Point | | Change Station
Active Advisory: Flood Warning Active Notice: Public Information Statement

Elev 732 ft 41.89 °N, 90.19 °W | Updated 2 minutes ago

Clear
Clear
80.9 °F
Feels Like 84 °F
N
9.0
Wind Variable Wind from NNE
Gusts 14.0 mph

Today
High -- | Low -- °F
--% Chance of Precip.
Yesterday
High -- | Low -- °F
Precip. -- in
Pressure 29.95 in
Visibility 10.0 miles
Clouds Clear
Heat Index 84 °F
Dew Point 68 °F
Humidity 66%
Rainfall 0.00 in
Snow Depth Not available.
5:50 AM 8:24 PM
Waxing Crescent, 24% visible
METAR KSFY 272235Z AUTO 03008KT 10SM CLR 28/18 A2995 RMK AO2 T02820183
Pressure 29.95 in
Visibility 10.0 miles
Clouds Clear
Heat Index 84 °F
Dew Point 68 °F
Humidity 66%
Rainfall 0.00 in
Snow Depth Not available.
5:50 AM 8:24 PM
Waxing Crescent, 24% visible
METAR KSFY 272235Z AUTO 03008KT 10SM CLR 28/18 A2995 RMK AO2 T02820183

Get Your Daily Forecast Email!

Thanks for signing up!

Be on the lookout for a verification email in your inbox.

You'll start receiving severe weather alerts in your inbox..

×

10-Day Weather Forecast

Almanac

Astronomy

Jul. 27, 2017 Rise Set
Actual Time
Civil Twilight
Nautical Twilight
Astronomical Twilight
Moon
Length of Visible Light
Length of Day
Tomorrow will be .
, % of the Moon is Illuminated

Today's Extremes

State Highs State Lows

Community

WunderPhotos

Category 6

Welcome to Category 6. This is the collective home for Weather Underground's featured writeups by Dr. Jeff Masters (right), Bob Henson (left), Chris Burt, and other regular contributors.

Nearby

Air Quality

  Air Quality AQ Index Pollutant
Not available.

Snow Depth

Station Depth Elevation

Earthquake Activity

City Distance Mag. Time & Date
Minimum magnitude displayed is 2.5.

Coastal Water Temperatures

Place Temperature

Stations

Nearby Weather Stations

Station Location Temp. Windchill Dew Point Humidity Wind Precip. Elev Updated Type
                   

Watches & Warnings

Flood Warning
Issued: 2:11 PM CDT Jul. 27, 2017 – National Weather Service

... Flood Warning now in effect until Wednesday morning...

The Flood Warning continues for
the wapsipinicon river near De Witt 4s.
* Until Wednesday morning.
* At 1:30 PM Thursday the stage was 11.3 feet and rising.
* Flood stage is 11.0 feet.
* Minor flooding is occurring and major flooding is forecast.
* Forecast... rise to 12.7 feet Saturday evening. Fall below flood
stage Wednesday morning.
* Impact... at 12.5 feet, major flood stage. Water affects old U.S.
Highway 61 near the river.


Lat... Lon 4200 9090 4184 9071 4177 9033 4169 9035
      4171 9080 4185 9090


12